createdAt,value
2019-01-16T00:00:20.946Z,9.50
2019-01-16T00:02:51.944Z,8.20
2019-01-16T00:05:40.870Z,13.33
2019-01-16T00:08:11.881Z,7.87
2019-01-16T00:10:48.310Z,8.17
2019-01-16T00:13:35.537Z,6.73
2019-01-16T00:16:06.333Z,7.03
2019-01-16T00:18:53.620Z,7.80
2019-01-16T00:21:30.457Z,9.60
2019-01-16T00:24:04.100Z,7.60
2019-01-16T00:26:51.677Z,7.13
2019-01-16T00:29:39.095Z,7.77
2019-01-16T00:32:09.855Z,10.40
2019-01-16T00:34:55.921Z,8.50
2019-01-16T00:37:38.879Z,8.17
2019-01-16T00:40:29.071Z,9.00
2019-01-16T00:43:05.692Z,8.07
2019-01-16T00:45:48.515Z,7.53
2019-01-16T00:48:25.442Z,8.37
2019-01-16T00:51:11.087Z,8.63
2019-01-16T00:53:42.106Z,8.80
2019-01-16T00:56:18.949Z,8.27
2019-01-16T00:59:05.047Z,9.83
2019-01-16T01:01:36.115Z,10.03
2019-01-16T01:04:23.539Z,7.50
2019-01-16T01:07:12.546Z,6.80
2019-01-16T01:09:43.603Z,8.07
2019-01-16T01:12:37.503Z,9.53
2019-01-16T01:15:10.178Z,8.13
2019-01-16T01:17:40.897Z,8.30
2019-01-16T01:20:17.641Z,7.60
2019-01-16T01:22:51.129Z,7.53
2019-01-16T01:25:24.589Z,6.97
2019-01-16T01:28:11.854Z,8.57
2019-01-16T01:30:51.720Z,7.37
2019-01-16T01:33:29.011Z,8.50
2019-01-16T01:36:18.306Z,8.73
2019-01-16T01:38:49.434Z,8.00
2019-01-16T01:41:32.356Z,8.07
2019-01-16T01:44:15.009Z,8.20
2019-01-16T01:46:51.215Z,7.50
2019-01-16T01:49:24.896Z,7.33
2019-01-16T01:51:55.651Z,8.83
2019-01-16T01:54:29.472Z,7.03
2019-01-16T01:57:00.478Z,9.13
2019-01-16T01:59:31.210Z,7.23
2019-01-16T02:02:01.937Z,9.63
2019-01-16T02:04:49.286Z,7.93
2019-01-16T02:07:36.278Z,8.63
2019-01-16T02:10:15.158Z,6.77
2019-01-16T02:13:02.161Z,8.00
2019-01-16T02:15:33.175Z,7.37
2019-01-16T02:18:03.892Z,8.53
2019-01-16T02:20:34.981Z,7.80
2019-01-16T02:23:22.276Z,7.10
2019-01-16T02:26:09.448Z,7.73
2019-01-16T02:28:48.710Z,6.10
2019-01-16T02:31:25.489Z,5.97
2019-01-16T02:33:59.135Z,6.13
2019-01-16T02:36:35.320Z,7.20
2019-01-16T02:39:10.360Z,8.60
2019-01-16T02:41:41.374Z,6.67
2019-01-16T02:44:30.785Z,9.27
2019-01-16T02:47:07.418Z,6.53
2019-01-16T02:49:41.266Z,6.20
2019-01-16T02:52:12.004Z,8.27
2019-01-16T02:54:51.433Z,6.10
2019-01-16T02:57:31.711Z,8.60
2019-01-16T03:00:02.436Z,7.53
2019-01-16T03:02:48.498Z,7.07
2019-01-16T03:05:22.251Z,7.93
2019-01-16T03:07:58.821Z,7.77
2019-01-16T03:10:29.795Z,6.50
2019-01-16T03:13:16.587Z,5.50
2019-01-16T03:16:03.281Z,7.37
2019-01-16T03:18:34.272Z,6.63
2019-01-16T03:21:04.986Z,6.20
2019-01-16T03:23:36.008Z,7.23
2019-01-16T03:26:06.780Z,7.90
2019-01-16T03:28:37.537Z,7.17
2019-01-16T03:31:26.609Z,5.67
2019-01-16T03:34:03.192Z,5.27
2019-01-16T03:36:43.389Z,5.67
2019-01-16T03:39:17.075Z,5.10
2019-01-16T03:41:48.123Z,6.90
2019-01-16T03:44:22.406Z,5.83
2019-01-16T03:46:53.117Z,5.13
2019-01-16T03:49:35.893Z,6.70
2019-01-16T03:52:07.221Z,7.20
2019-01-16T03:54:46.572Z,5.83
2019-01-16T03:57:34.009Z,6.30
2019-01-16T04:00:22.869Z,6.93
2019-01-16T04:03:09.990Z,4.57
2019-01-16T04:05:57.245Z,5.53
2019-01-16T04:08:30.694Z,5.03
2019-01-16T04:11:16.638Z,6.40
2019-01-16T04:13:47.386Z,4.63
2019-01-16T04:16:18.773Z,5.67
2019-01-16T04:18:49.517Z,4.23
2019-01-16T04:21:20.268Z,4.90
2019-01-16T04:23:57.430Z,3.00
2019-01-16T04:26:28.230Z,4.00
2019-01-16T04:29:15.447Z,4.10
2019-01-16T04:32:02.823Z,4.03
2019-01-16T04:34:40.022Z,4.03
2019-01-16T04:37:29.199Z,2.93
2019-01-16T04:39:59.951Z,3.90
2019-01-16T04:42:36.665Z,3.40
2019-01-16T04:45:24.795Z,3.10
2019-01-16T04:48:04.937Z,3.47
2019-01-16T04:50:44.483Z,2.70
2019-01-16T04:53:20.748Z,6.43
2019-01-16T04:56:09.544Z,3.80
2019-01-16T04:58:43.340Z,3.17
2019-01-16T05:01:25.929Z,3.63
2019-01-16T05:03:59.614Z,3.40
2019-01-16T05:06:36.337Z,3.27
2019-01-16T05:09:09.637Z,3.53
2019-01-16T05:11:56.685Z,3.03
2019-01-16T05:14:27.456Z,4.47
2019-01-16T05:16:58.432Z,3.17
2019-01-16T05:19:45.107Z,3.47
2019-01-16T05:22:15.829Z,2.97
2019-01-16T05:24:52.169Z,3.20
2019-01-16T05:27:35.392Z,4.23
2019-01-16T05:30:24.280Z,4.53
2019-01-16T05:32:58.217Z,3.43
2019-01-16T05:35:32.608Z,3.47
2019-01-16T05:38:12.820Z,5.43
2019-01-16T05:41:00.453Z,4.40
2019-01-16T05:43:31.173Z,4.00
2019-01-16T05:46:11.151Z,4.17
2019-01-16T05:48:50.845Z,5.37
2019-01-16T05:51:24.521Z,4.47
2019-01-16T05:53:55.515Z,4.47
2019-01-16T05:56:42.549Z,3.90
2019-01-16T05:59:13.816Z,4.40
2019-01-16T06:01:44.548Z,5.10
2019-01-16T06:04:20.758Z,5.10
2019-01-16T06:06:57.512Z,3.50
2019-01-16T06:09:34.203Z,5.10
2019-01-16T06:12:21.485Z,3.13
2019-01-16T06:14:58.167Z,3.83
2019-01-16T06:17:31.613Z,4.53
2019-01-16T06:20:02.330Z,3.37
2019-01-16T06:22:49.573Z,4.20
2019-01-16T06:25:22.980Z,3.77
2019-01-16T06:28:02.652Z,3.10
2019-01-16T06:30:39.141Z,3.73
2019-01-16T06:33:10.163Z,2.77
2019-01-16T06:35:40.873Z,3.33
2019-01-16T06:38:11.640Z,3.50
2019-01-16T06:40:42.630Z,3.07
2019-01-16T06:43:22.379Z,3.13
2019-01-16T06:45:53.106Z,3.77
2019-01-16T06:48:33.123Z,3.37
2019-01-16T06:51:12.926Z,4.07
2019-01-16T06:53:46.594Z,3.03
2019-01-16T06:56:26.101Z,4.63
2019-01-16T06:59:02.784Z,3.77
2019-01-16T07:01:39.853Z,4.23
2019-01-16T07:04:13.337Z,4.67
2019-01-16T07:06:59.022Z,4.07
2019-01-16T07:09:32.939Z,3.70
2019-01-16T07:12:06.558Z,3.53
2019-01-16T07:14:37.289Z,4.60
2019-01-16T07:17:13.497Z,3.60
2019-01-16T07:19:59.114Z,4.93
2019-01-16T07:22:32.446Z,3.37
2019-01-16T07:25:09.150Z,4.80
2019-01-16T07:27:49.329Z,3.47
2019-01-16T07:30:29.673Z,3.30
2019-01-16T07:33:20.217Z,3.40
2019-01-16T07:35:50.929Z,2.97
2019-01-16T07:38:31.439Z,3.17
2019-01-16T07:41:18.965Z,2.83
2019-01-16T07:44:01.722Z,2.80
2019-01-16T07:46:49.118Z,3.40
2019-01-16T07:49:36.480Z,2.90
2019-01-16T07:52:07.259Z,3.10
2019-01-16T07:54:37.969Z,2.90
2019-01-16T07:57:14.844Z,3.70
2019-01-16T07:59:57.852Z,2.83
2019-01-16T08:02:44.840Z,2.57
2019-01-16T08:05:30.649Z,3.60
2019-01-16T08:08:13.666Z,4.63
2019-01-16T08:10:50.482Z,2.40
2019-01-16T08:13:21.682Z,3.10
2019-01-16T08:16:09.194Z,2.60
2019-01-16T08:18:39.973Z,2.87
2019-01-16T08:21:13.410Z,2.50
2019-01-16T08:23:44.403Z,2.93
2019-01-16T08:26:31.723Z,2.97
2019-01-16T08:29:17.394Z,1.93
2019-01-16T08:31:54.361Z,3.57
2019-01-16T08:34:37.328Z,2.80
2019-01-16T08:37:24.274Z,3.73
2019-01-16T08:39:55.269Z,2.97
2019-01-16T08:42:28.811Z,3.43
2019-01-16T08:45:02.777Z,3.23
2019-01-16T08:47:48.566Z,3.37
2019-01-16T08:50:19.472Z,3.63
2019-01-16T08:52:50.258Z,2.57
2019-01-16T08:55:21.203Z,2.10
2019-01-16T08:57:52.232Z,2.43
2019-01-16T09:00:23.221Z,1.80
2019-01-16T09:03:10.547Z,1.70
2019-01-16T09:05:41.611Z,1.80
2019-01-16T09:08:15.296Z,1.67
2019-01-16T09:10:58.405Z,1.80
2019-01-16T09:13:47.177Z,2.70
2019-01-16T09:16:20.647Z,2.67
2019-01-16T09:18:57.162Z,3.23
2019-01-16T09:21:44.392Z,2.20
2019-01-16T09:24:15.105Z,1.73
2019-01-16T09:26:48.741Z,1.90
2019-01-16T09:29:28.440Z,2.97
2019-01-16T09:32:15.216Z,2.40
2019-01-16T09:35:01.544Z,2.00
2019-01-16T09:37:32.899Z,2.60
2019-01-16T09:40:18.643Z,2.33
2019-01-16T09:43:05.845Z,1.80
2019-01-16T09:45:45.797Z,1.77
2019-01-16T09:48:17.118Z,1.97
2019-01-16T09:50:56.633Z,1.60
2019-01-16T09:53:45.744Z,1.70
2019-01-16T09:56:19.747Z,1.90
2019-01-16T09:58:50.762Z,2.30
2019-01-16T10:01:24.345Z,1.73
2019-01-16T10:04:11.669Z,2.00
2019-01-16T10:06:48.351Z,1.93
2019-01-16T10:09:31.655Z,2.17
2019-01-16T10:12:08.597Z,1.73
2019-01-16T10:14:45.309Z,1.93
2019-01-16T10:17:16.134Z,2.90
2019-01-16T10:19:52.933Z,2.50
2019-01-16T10:22:29.412Z,2.20
2019-01-16T10:25:12.278Z,1.97
2019-01-16T10:27:52.154Z,2.00
2019-01-16T10:30:23.986Z,2.20
2019-01-16T10:33:09.965Z,2.00
2019-01-16T10:35:40.968Z,1.70
2019-01-16T10:38:11.985Z,1.73
2019-01-16T10:40:54.734Z,1.53
2019-01-16T10:43:43.507Z,1.90
2019-01-16T10:46:17.205Z,1.80
2019-01-16T10:48:56.597Z,2.03
2019-01-16T10:51:42.699Z,2.53
2019-01-16T10:54:13.681Z,1.93
2019-01-16T10:56:59.974Z,2.33
2019-01-16T10:59:42.828Z,1.73
2019-01-16T11:02:29.952Z,1.93
2019-01-16T11:05:17.068Z,3.53
2019-01-16T11:07:50.913Z,2.13
2019-01-16T11:10:24.530Z,1.87
2019-01-16T11:13:01.361Z,2.63
2019-01-16T11:15:35.032Z,3.20
2019-01-16T11:18:21.304Z,3.30
2019-01-16T11:20:54.959Z,1.97
2019-01-16T11:23:31.692Z,1.73
2019-01-16T11:26:11.790Z,2.00
2019-01-16T11:28:43.186Z,2.77
2019-01-16T11:31:30.445Z,1.87
2019-01-16T11:34:03.868Z,1.90
2019-01-16T11:36:53.033Z,1.73
2019-01-16T11:39:40.261Z,2.33
2019-01-16T11:42:11.001Z,1.90
2019-01-16T11:44:56.766Z,5.70
2019-01-16T11:47:30.492Z,2.53
2019-01-16T11:50:10.567Z,1.80
2019-01-16T11:52:47.533Z,1.87
2019-01-16T11:55:33.279Z,1.70
2019-01-16T11:58:20.169Z,2.23
2019-01-16T12:00:57.384Z,2.57
2019-01-16T12:03:37.621Z,2.13
2019-01-16T12:06:25.162Z,2.00
2019-01-16T12:09:12.267Z,1.80
2019-01-16T12:11:59.454Z,3.13
2019-01-16T12:14:38.936Z,1.80
2019-01-16T12:17:26.081Z,1.80
2019-01-16T12:20:13.628Z,1.90
2019-01-16T12:22:44.642Z,1.80
2019-01-16T12:25:18.026Z,2.37
2019-01-16T12:27:51.569Z,5.20
2019-01-16T12:30:42.531Z,1.60
2019-01-16T12:33:16.223Z,1.50
2019-01-16T12:35:53.172Z,1.80
2019-01-16T12:38:23.993Z,1.90
2019-01-16T12:41:11.196Z,3.60
2019-01-16T12:43:47.854Z,5.63
2019-01-16T12:46:21.796Z,1.90
2019-01-16T12:49:01.331Z,2.13
2019-01-16T12:51:37.806Z,1.80
2019-01-16T12:54:17.250Z,2.73
2019-01-16T12:56:56.658Z,3.80
2019-01-16T12:59:36.607Z,1.60
2019-01-16T13:02:07.612Z,2.47
2019-01-16T13:04:44.405Z,3.50
2019-01-16T13:07:30.153Z,2.07
2019-01-16T13:10:06.877Z,1.90
2019-01-16T13:12:46.424Z,2.20
2019-01-16T13:15:33.835Z,1.50
2019-01-16T13:18:04.569Z,2.10
2019-01-16T13:20:50.372Z,2.87
2019-01-16T13:23:27.395Z,1.60
2019-01-16T13:26:13.259Z,2.67
2019-01-16T13:28:44.222Z,1.87
2019-01-16T13:31:33.173Z,2.17
2019-01-16T13:34:04.154Z,1.67
2019-01-16T13:36:34.864Z,3.63
2019-01-16T13:39:08.869Z,2.13
2019-01-16T13:41:39.840Z,2.33
2019-01-16T13:44:26.080Z,3.53
2019-01-16T13:46:59.709Z,2.70
2019-01-16T13:49:39.824Z,5.10
2019-01-16T13:52:22.764Z,3.63
2019-01-16T13:55:09.833Z,6.50
2019-01-16T13:57:43.561Z,4.60
2019-01-16T14:00:15.687Z,3.90
2019-01-16T14:02:55.605Z,4.97
2019-01-16T14:05:29.329Z,5.43
2019-01-16T14:08:06.107Z,4.50
2019-01-16T14:10:45.851Z,3.57
2019-01-16T14:13:22.567Z,3.83
2019-01-16T14:15:59.041Z,2.97
2019-01-16T14:18:32.429Z,3.33
2019-01-16T14:21:12.668Z,3.63
2019-01-16T14:23:46.100Z,7.07
2019-01-16T14:26:17.397Z,3.43
2019-01-16T14:28:54.322Z,7.87
2019-01-16T14:31:25.054Z,4.57
2019-01-16T14:33:58.694Z,5.90
2019-01-16T14:36:45.888Z,5.57
2019-01-16T14:39:19.575Z,3.67
2019-01-16T14:42:08.224Z,3.90
2019-01-16T14:44:45.901Z,7.70
2019-01-16T14:47:17.116Z,4.07
2019-01-16T14:49:51.678Z,4.27
2019-01-16T14:52:22.373Z,5.70
2019-01-16T14:55:06.402Z,4.87
2019-01-16T14:57:50.912Z,6.47
2019-01-16T15:00:25.158Z,4.30
2019-01-16T15:03:05.041Z,5.33
2019-01-16T15:05:38.801Z,4.07
2019-01-16T15:08:12.944Z,4.70
2019-01-16T15:10:43.917Z,5.50
2019-01-16T15:13:26.932Z,6.83
2019-01-16T15:16:14.305Z,7.90
2019-01-16T15:18:50.970Z,5.27
2019-01-16T15:21:38.117Z,5.50
2019-01-16T15:24:18.079Z,5.20
2019-01-16T15:26:54.896Z,5.90
2019-01-16T15:29:31.823Z,6.43
2019-01-16T15:32:09.036Z,5.63
2019-01-16T15:34:43.228Z,6.53
2019-01-16T15:37:14.270Z,5.70
2019-01-16T15:39:45.235Z,7.57
2019-01-16T15:42:32.561Z,4.83
2019-01-16T15:45:09.196Z,6.90
2019-01-16T15:47:46.088Z,5.73
2019-01-16T15:50:35.299Z,5.57
2019-01-16T15:53:06.127Z,5.37
2019-01-16T15:55:37.159Z,5.37
2019-01-16T15:58:19.997Z,9.50
2019-01-16T16:01:03.276Z,7.23
2019-01-16T16:03:50.445Z,7.87
2019-01-16T16:06:24.099Z,6.50
2019-01-16T16:08:55.098Z,7.50
2019-01-16T16:11:26.059Z,6.23
2019-01-16T16:14:13.438Z,5.30
2019-01-16T16:16:50.212Z,8.07
2019-01-16T16:19:23.892Z,10.37
2019-01-16T16:21:54.858Z,6.30
2019-01-16T16:24:31.579Z,7.73
2019-01-16T16:27:18.910Z,8.13
2019-01-16T16:29:52.871Z,9.43
2019-01-16T16:32:23.828Z,5.97
2019-01-16T16:35:06.474Z,10.13
2019-01-16T16:37:40.153Z,6.60
2019-01-16T16:40:12.201Z,6.60
2019-01-16T16:42:42.942Z,6.37
2019-01-16T16:45:14.191Z,8.13
2019-01-16T16:47:53.573Z,10.70
2019-01-16T16:50:40.576Z,5.37
2019-01-16T16:53:11.555Z,8.87
2019-01-16T16:55:51.505Z,12.73
2019-01-16T16:58:25.460Z,13.60
2019-01-16T17:00:59.249Z,5.97
2019-01-16T17:03:48.363Z,8.00
2019-01-16T17:06:25.020Z,10.10
2019-01-16T17:09:05.195Z,7.70
2019-01-16T17:11:45.218Z,5.70
2019-01-16T17:14:21.678Z,7.90
2019-01-16T17:16:58.164Z,5.90
2019-01-16T17:19:29.416Z,9.30
2019-01-16T17:22:09.342Z,6.37
2019-01-16T17:24:49.107Z,7.50
2019-01-16T17:27:36.047Z,7.37
2019-01-16T17:30:21.242Z,8.80
2019-01-16T17:32:52.066Z,8.30
2019-01-16T17:35:23.047Z,9.60
2019-01-16T17:37:59.551Z,8.03
2019-01-16T17:40:46.572Z,11.00
2019-01-16T17:43:33.516Z,9.43
2019-01-16T17:46:06.701Z,9.83
2019-01-16T17:48:37.542Z,10.47
2019-01-16T17:51:17.059Z,6.07
2019-01-16T17:54:04.457Z,10.50
2019-01-16T17:56:51.816Z,8.77
2019-01-16T17:59:28.277Z,8.20
2019-01-16T18:01:59.253Z,7.27
2019-01-16T18:04:33.219Z,8.57
2019-01-16T18:07:10.183Z,7.93
2019-01-16T18:09:40.952Z,8.83
2019-01-16T18:12:14.934Z,8.27
2019-01-16T18:14:48.413Z,8.37
2019-01-16T18:17:31.117Z,8.97
2019-01-16T18:20:17.199Z,8.80
2019-01-16T18:22:48.179Z,10.37
2019-01-16T18:25:18.933Z,10.13
2019-01-16T18:28:05.928Z,11.33
2019-01-16T18:30:39.653Z,8.60
2019-01-16T18:33:22.792Z,10.83
2019-01-16T18:36:02.397Z,6.67
2019-01-16T18:38:49.477Z,12.67
2019-01-16T18:41:23.144Z,9.80
2019-01-16T18:44:10.378Z,11.43
2019-01-16T18:46:50.430Z,10.17
2019-01-16T18:49:30.373Z,11.30
2019-01-16T18:52:01.391Z,13.90
2019-01-16T18:54:38.344Z,10.53
2019-01-16T18:57:25.520Z,13.07
2019-01-16T18:59:59.225Z,9.67
2019-01-16T19:02:36.143Z,11.20
2019-01-16T19:05:24.514Z,9.17
2019-01-16T19:08:11.982Z,8.47
2019-01-16T19:10:42.969Z,11.80
2019-01-16T19:13:13.993Z,7.73
2019-01-16T19:15:44.965Z,7.70
2019-01-16T19:18:21.430Z,8.40
2019-01-16T19:21:07.461Z,9.77
2019-01-16T19:23:50.093Z,9.70
2019-01-16T19:26:27.018Z,8.70
2019-01-16T19:29:13.046Z,10.50
2019-01-16T19:31:44.089Z,12.10
2019-01-16T19:34:14.895Z,7.67
2019-01-16T19:37:01.076Z,8.67
2019-01-16T19:39:48.836Z,8.00
2019-01-16T19:42:25.846Z,9.77
2019-01-16T19:44:56.622Z,9.87
2019-01-16T19:47:33.293Z,9.60
2019-01-16T19:50:13.426Z,9.97
2019-01-16T19:53:04.690Z,14.83
2019-01-16T19:55:44.197Z,12.10
2019-01-16T19:58:14.920Z,10.17
2019-01-16T20:00:54.794Z,9.13
2019-01-16T20:03:42.153Z,14.00
2019-01-16T20:06:15.672Z,15.97
2019-01-16T20:08:49.377Z,11.33
2019-01-16T20:11:26.406Z,10.77
2019-01-16T20:14:08.845Z,12.37
2019-01-16T20:16:51.301Z,10.80
2019-01-16T20:19:25.018Z,9.20
2019-01-16T20:21:56.191Z,10.50
2019-01-16T20:24:26.949Z,10.47
2019-01-16T20:27:12.818Z,10.63
2019-01-16T20:29:46.280Z,9.50
2019-01-16T20:32:23.018Z,11.80
2019-01-16T20:34:56.493Z,12.43
2019-01-16T20:37:42.210Z,9.73
2019-01-16T20:40:16.829Z,10.73
2019-01-16T20:42:47.825Z,10.97
2019-01-16T20:45:21.848Z,9.83
2019-01-16T20:48:08.935Z,9.43
2019-01-16T20:50:39.950Z,9.57
2019-01-16T20:53:17.582Z,12.00
2019-01-16T20:55:54.753Z,8.53
2019-01-16T20:58:25.632Z,12.60
2019-01-16T21:01:13.163Z,13.83
2019-01-16T21:03:49.862Z,8.90
2019-01-16T21:06:23.405Z,8.70
2019-01-16T21:08:54.510Z,10.47
2019-01-16T21:14:02.248Z,10.07
2019-01-16T21:19:11.616Z,11.73
2019-01-16T21:21:47.942Z,11.00
2019-01-16T21:24:18.780Z,12.07
2019-01-16T21:26:50.017Z,8.87
2019-01-16T21:29:30.033Z,9.23
2019-01-16T21:32:19.264Z,9.93
2019-01-16T21:34:53.134Z,14.83
2019-01-16T21:37:33.229Z,10.87
2019-01-16T21:40:13.089Z,12.83
2019-01-16T21:42:43.884Z,15.20
2019-01-16T21:45:14.981Z,9.40
2019-01-16T21:48:00.323Z,12.17
2019-01-16T21:50:43.592Z,7.93
2019-01-16T21:56:39.444Z,10.20
2019-01-16T21:59:19.600Z,11.83
2019-01-16T22:02:09.778Z,11.53
2019-01-16T22:04:40.601Z,9.83
2019-01-16T22:07:17.369Z,8.33
2019-01-16T22:09:48.177Z,9.07
2019-01-16T22:12:19.270Z,9.47
2019-01-16T22:15:08.012Z,12.40
2019-01-16T22:17:39.506Z,8.43
2019-01-16T22:20:10.600Z,8.20
2019-01-16T22:22:57.594Z,12.53
2019-01-16T22:25:44.730Z,11.80
2019-01-16T22:28:18.424Z,9.23
2019-01-16T22:30:57.992Z,8.17
2019-01-16T22:33:46.513Z,8.10
2019-01-16T22:36:32.888Z,10.07
2019-01-16T22:39:03.895Z,11.53
2019-01-16T22:41:34.633Z,10.30
2019-01-16T22:44:17.864Z,7.77
2019-01-16T22:46:51.495Z,6.40
2019-01-16T22:49:22.461Z,12.23
2019-01-16T22:51:53.327Z,9.27
2019-01-16T22:54:24.277Z,7.47
2019-01-16T22:56:57.738Z,7.27
2019-01-16T22:59:40.434Z,10.57
2019-01-16T23:02:27.677Z,9.33
2019-01-16T23:05:01.148Z,7.40
2019-01-16T23:07:44.500Z,7.03
2019-01-16T23:10:18.180Z,8.53
2019-01-16T23:12:54.823Z,5.57
2019-01-16T23:15:37.744Z,7.70
2019-01-16T23:18:26.408Z,7.87
2019-01-16T23:21:00.302Z,5.97
2019-01-16T23:23:31.331Z,5.20
2019-01-16T23:26:02.054Z,8.13
2019-01-16T23:28:35.670Z,10.00
2019-01-16T23:31:22.521Z,8.63
2019-01-16T23:34:05.598Z,7.37
2019-01-16T23:36:39.090Z,8.03
2019-01-16T23:39:09.898Z,6.13
2019-01-16T23:41:40.922Z,6.67
2019-01-16T23:44:11.895Z,7.93
2019-01-16T23:46:45.541Z,5.80
2019-01-16T23:49:27.943Z,5.30
2019-01-16T23:52:10.667Z,8.87
2019-01-16T23:54:41.494Z,7.10
2019-01-16T23:57:24.402Z,6.80
2019-01-16T23:59:55.403Z,5.67
